sensor_id;sensor_type;location;lat;lon;timestamp;noise_LAeq;noise_LA_min;noise_LA_max;noise_LA01;noise_LA95
1754;Laerm;58380;48.312;9.246;2024-02-28T07:07:45;52.55;40.33;78.14;;
1754;Laerm;58380;48.312;9.246;2024-02-28T07:10:47;47.47;38.99;55.66;;
1754;Laerm;58380;48.312;9.246;2024-02-28T07:13:49;47.96;40.75;55.52;;
1754;Laerm;58380;48.312;9.246;2024-02-28T07:16:50;44.38;34.91;56.05;;
1754;Laerm;58380;48.312;9.246;2024-02-28T07:19:52;47.76;38.23;59.51;;
1754;Laerm;58380;48.312;9.246;2024-02-28T07:22:52;49.61;35.26;60.14;;
1754;Laerm;58380;48.312;9.246;2024-02-28T07:25:53;46.16;37.82;64.58;;
1754;Laerm;58380;48.312;9.246;2024-02-28T07:28:53;47.46;36.73;69.28;;
1754;Laerm;58380;48.312;9.246;2024-02-28T07:31:54;47.22;36.98;59.58;;
1754;Laerm;58380;48.312;9.246;2024-02-28T07:34:54;46.33;36.18;59.88;;
1754;Laerm;58380;48.312;9.246;2024-02-28T07:37:55;49.73;39.11;74.15;;
1754;Laerm;58380;48.312;9.246;2024-02-28T07:40:56;49.00;41.77;58.34;;
1754;Laerm;58380;48.312;9.246;2024-02-28T07:43:56;46.59;37.18;68.57;;
1754;Laerm;58380;48.312;9.246;2024-02-28T07:46:58;47.96;36.18;74.02;;
1754;Laerm;58380;48.312;9.246;2024-02-28T07:49:58;46.69;35.80;60.99;;
1754;Laerm;58380;48.312;9.246;2024-02-28T07:52:59;49.47;36.79;65.55;;
1754;Laerm;58380;48.312;9.246;2024-02-28T07:55:59;48.72;38.93;62.63;;
1754;Laerm;58380;48.312;9.246;2024-02-28T07:59:00;47.36;37.21;60.68;;
1754;Laerm;58380;48.312;9.246;2024-02-28T08:02:00;46.03;36.51;57.86;;
1754;Laerm;58380;48.312;9.246;2024-02-28T08:05:01;47.56;40.43;64.21;;
1754;Laerm;58380;48.312;9.246;2024-02-28T08:08:01;47.74;35.92;73.57;;
1754;Laerm;58380;48.312;9.246;2024-02-28T08:11:01;49.28;39.31;71.27;;
1754;Laerm;58380;48.312;9.246;2024-02-28T08:14:03;45.60;35.46;57.38;;
1754;Laerm;58380;48.312;9.246;2024-02-28T08:17:04;45.74;36.92;54.59;;
1754;Laerm;58380;48.312;9.246;2024-02-28T08:20:05;45.48;36.79;57.89;;
1754;Laerm;58380;48.312;9.246;2024-02-28T08:23:06;45.63;34.01;53.66;;
1754;Laerm;58380;48.312;9.246;2024-02-28T08:26:06;45.45;37.82;60.22;;
1754;Laerm;58380;48.312;9.246;2024-02-28T08:29:07;53.80;33.74;72.11;;
1754;Laerm;58380;48.312;9.246;2024-02-28T08:32:07;46.94;36.85;56.20;;
1754;Laerm;58380;48.312;9.246;2024-02-28T08:35:08;47.37;36.83;64.63;;
1754;Laerm;58380;48.312;9.246;2024-02-28T08:38:10;46.95;38.16;58.24;;
1754;Laerm;58380;48.312;9.246;2024-02-28T08:41:10;47.32;34.83;62.74;;
1754;Laerm;58380;48.312;9.246;2024-02-28T08:44:12;45.85;34.54;58.86;;
1754;Laerm;58380;48.312;9.246;2024-02-28T08:47:13;51.19;42.54;61.53;;
1754;Laerm;58380;48.312;9.246;2024-02-28T08:50:13;48.63;37.30;68.36;;
1754;Laerm;58380;48.312;9.246;2024-02-28T08:53:14;50.45;36.70;72.46;;
1754;Laerm;58380;48.312;9.246;2024-02-28T08:56:14;49.49;34.51;72.82;;
1754;Laerm;58380;48.312;9.246;2024-02-28T08:59:15;47.88;34.75;70.94;;
1754;Laerm;58380;48.312;9.246;2024-02-28T09:02:15;51.34;39.37;73.51;;
1754;Laerm;58380;48.312;9.246;2024-02-28T09:05:15;47.59;35.79;69.77;;
1754;Laerm;58380;48.312;9.246;2024-02-28T09:08:16;48.59;38.06;74.82;;
1754;Laerm;58380;48.312;9.246;2024-02-28T09:11:16;45.85;35.14;56.60;;
1754;Laerm;58380;48.312;9.246;2024-02-28T09:14:17;45.54;32.96;63.31;;
1754;Laerm;58380;48.312;9.246;2024-02-28T09:17:17;45.84;33.17;57.12;;
1754;Laerm;58380;48.312;9.246;2024-02-28T09:20:18;45.84;35.71;59.43;;
1754;Laerm;58380;48.312;9.246;2024-02-28T09:23:18;51.07;32.80;77.41;;
1754;Laerm;58380;48.312;9.246;2024-02-28T09:26:18;49.65;41.99;63.80;;
1754;Laerm;58380;48.312;9.246;2024-02-28T09:29:19;47.57;34.43;64.01;;
1754;Laerm;58380;48.312;9.246;2024-02-28T09:32:19;45.66;36.04;58.18;;
1754;Laerm;58380;48.312;9.246;2024-02-28T09:35:20;45.56;33.57;57.28;;
1754;Laerm;58380;48.312;9.246;2024-02-28T09:38:20;46.67;38.81;57.67;;
1754;Laerm;58380;48.312;9.246;2024-02-28T09:41:22;45.62;34.01;58.17;;
1754;Laerm;58380;48.312;9.246;2024-02-28T09:44:26;43.75;36.73;54.58;;
1754;Laerm;58380;48.312;9.246;2024-02-28T09:47:27;47.22;38.62;59.81;;
1754;Laerm;58380;48.312;9.246;2024-02-28T09:50:27;45.46;36.91;54.08;;
1754;Laerm;58380;48.312;9.246;2024-02-28T09:53:28;46.80;39.05;56.28;;
1754;Laerm;58380;48.312;9.246;2024-02-28T09:56:28;48.67;38.44;62.06;;
1754;Laerm;58380;48.312;9.246;2024-02-28T09:59:29;45.15;32.53;58.17;;
1754;Laerm;58380;48.312;9.246;2024-02-28T10:02:31;47.11;36.75;60.61;;
1754;Laerm;58380;48.312;9.246;2024-02-28T10:05:33;46.77;36.53;55.73;;
1754;Laerm;58380;48.312;9.246;2024-02-28T10:08:34;47.49;39.12;68.42;;
1754;Laerm;58380;48.312;9.246;2024-02-28T10:11:37;48.47;39.80;61.53;;
1754;Laerm;58380;48.312;9.246;2024-02-28T10:14:38;47.32;37.65;61.62;;
1754;Laerm;58380;48.312;9.246;2024-02-28T10:17:38;43.75;33.16;52.98;;
1754;Laerm;58380;48.312;9.246;2024-02-28T10:20:39;51.26;34.81;83.06;;
1754;Laerm;58380;48.312;9.246;2024-02-28T10:23:39;48.53;37.96;71.87;;
1754;Laerm;58380;48.312;9.246;2024-02-28T10:26:44;53.48;38.52;71.81;;
1754;Laerm;58380;48.312;9.246;2024-02-28T10:29:45;46.79;36.98;59.56;;
1754;Laerm;58380;48.312;9.246;2024-02-28T10:32:49;47.08;33.82;66.49;;
1754;Laerm;58380;48.312;9.246;2024-02-28T10:35:51;46.64;35.61;60.52;;
1754;Laerm;58380;48.312;9.246;2024-02-28T10:38:55;46.82;39.18;60.58;;
1754;Laerm;58380;48.312;9.246;2024-02-28T10:41:59;47.80;36.71;60.03;;
1754;Laerm;58380;48.312;9.246;2024-02-28T10:45:02;45.40;34.90;58.83;;
1754;Laerm;58380;48.312;9.246;2024-02-28T10:48:04;47.04;35.45;58.11;;
1754;Laerm;58380;48.312;9.246;2024-02-28T10:51:05;47.97;37.30;78.14;;
1754;Laerm;58380;48.312;9.246;2024-02-28T10:54:12;46.93;37.69;59.98;;
1754;Laerm;58380;48.312;9.246;2024-02-28T10:57:15;47.83;33.49;74.43;;
1754;Laerm;58380;48.312;9.246;2024-02-28T11:00:18;47.36;32.65;67.06;;
1754;Laerm;58380;48.312;9.246;2024-02-28T11:03:19;45.37;36.48;64.94;;
1754;Laerm;58380;48.312;9.246;2024-02-28T11:06:21;43.67;35.64;55.47;;
1754;Laerm;58380;48.312;9.246;2024-02-28T11:09:25;43.66;33.03;65.44;;
1754;Laerm;58380;48.312;9.246;2024-02-28T11:12:28;45.47;35.82;70.66;;
1754;Laerm;58380;48.312;9.246;2024-02-28T11:15:29;46.85;35.37;68.04;;
1754;Laerm;58380;48.312;9.246;2024-02-28T11:18:30;43.93;33.87;56.41;;
1754;Laerm;58380;48.312;9.246;2024-02-28T11:21:35;43.67;32.25;54.20;;
1754;Laerm;58380;48.312;9.246;2024-02-28T11:24:35;46.81;36.58;66.87;;
1754;Laerm;58380;48.312;9.246;2024-02-28T11:27:48;45.75;33.48;57.39;;
1754;Laerm;58380;48.312;9.246;2024-02-28T11:30:48;46.21;32.40;55.36;;
1754;Laerm;58380;48.312;9.246;2024-02-28T11:33:49;45.13;33.35;60.50;;
1754;Laerm;58380;48.312;9.246;2024-02-28T11:36:50;47.59;35.77;69.59;;
1754;Laerm;58380;48.312;9.246;2024-02-28T11:39:51;56.22;34.34;74.08;;
1754;Laerm;58380;48.312;9.246;2024-02-28T11:42:52;43.84;32.30;57.08;;
1754;Laerm;58380;48.312;9.246;2024-02-28T11:45:54;47.07;34.45;59.01;;
1754;Laerm;58380;48.312;9.246;2024-02-28T11:48:55;45.85;35.91;70.52;;
1754;Laerm;58380;48.312;9.246;2024-02-28T11:51:56;45.41;34.63;67.86;;
1754;Laerm;58380;48.312;9.246;2024-02-28T11:54:57;47.83;35.46;60.93;;
1754;Laerm;58380;48.312;9.246;2024-02-28T11:57:57;47.39;37.04;67.12;;
1754;Laerm;58380;48.312;9.246;2024-02-28T12:00:57;47.38;38.42;58.57;;
1754;Laerm;58380;48.312;9.246;2024-02-28T12:03:58;44.62;32.67;68.76;;
1754;Laerm;58380;48.312;9.246;2024-02-28T12:06:59;45.24;37.03;58.72;;
1754;Laerm;58380;48.312;9.246;2024-02-28T12:10:00;48.38;41.36;69.13;;
1754;Laerm;58380;48.312;9.246;2024-02-28T12:13:01;46.70;37.93;61.30;;
1754;Laerm;58380;48.312;9.246;2024-02-28T12:16:01;45.27;36.61;67.45;;
1754;Laerm;58380;48.312;9.246;2024-02-28T12:19:10;47.46;37.96;56.30;;
1754;Laerm;58380;48.312;9.246;2024-02-28T12:22:10;50.70;39.40;62.89;;
1754;Laerm;58380;48.312;9.246;2024-02-28T12:25:11;46.55;35.10;63.43;;
1754;Laerm;58380;48.312;9.246;2024-02-28T12:28:11;47.43;37.47;62.34;;
1754;Laerm;58380;48.312;9.246;2024-02-28T12:31:13;46.22;38.11;54.44;;
1754;Laerm;58380;48.312;9.246;2024-02-28T12:34:13;47.13;37.07;59.84;;
1754;Laerm;58380;48.312;9.246;2024-02-28T12:37:15;46.64;36.84;58.53;;
1754;Laerm;58380;48.312;9.246;2024-02-28T12:40:16;47.54;36.13;57.59;;
1754;Laerm;58380;48.312;9.246;2024-02-28T12:43:17;46.69;38.20;59.36;;
1754;Laerm;58380;48.312;9.246;2024-02-28T12:46:17;47.39;37.28;57.52;;
1754;Laerm;58380;48.312;9.246;2024-02-28T12:49:18;49.71;35.15;63.26;;
1754;Laerm;58380;48.312;9.246;2024-02-28T12:52:18;46.60;34.49;57.81;;
1754;Laerm;58380;48.312;9.246;2024-02-28T12:55:20;47.71;38.38;58.93;;
1754;Laerm;58380;48.312;9.246;2024-02-28T12:58:21;48.96;35.70;70.01;;
1754;Laerm;58380;48.312;9.246;2024-02-28T13:01:26;47.35;35.76;61.25;;
1754;Laerm;58380;48.312;9.246;2024-02-28T13:04:26;48.67;38.17;62.10;;
1754;Laerm;58380;48.312;9.246;2024-02-28T13:07:29;45.38;36.74;55.36;;
1754;Laerm;58380;48.312;9.246;2024-02-28T13:10:30;49.05;37.71;62.92;;
1754;Laerm;58380;48.312;9.246;2024-02-28T13:13:30;52.00;41.16;72.92;;
1754;Laerm;58380;48.312;9.246;2024-02-28T13:16:31;46.71;36.67;61.24;;
1754;Laerm;58380;48.312;9.246;2024-02-28T13:19:31;46.65;35.53;57.60;;
1754;Laerm;58380;48.312;9.246;2024-02-28T13:22:32;47.92;40.39;58.41;;
1754;Laerm;58380;48.312;9.246;2024-02-28T13:25:32;47.97;37.97;61.53;;
1754;Laerm;58380;48.312;9.246;2024-02-28T13:28:33;48.68;39.70;63.17;;
1754;Laerm;58380;48.312;9.246;2024-02-28T13:31:35;45.76;35.43;55.13;;
1754;Laerm;58380;48.312;9.246;2024-02-28T13:34:36;46.57;37.31;55.04;;
1754;Laerm;58380;48.312;9.246;2024-02-28T13:37:36;46.91;38.91;57.59;;
1754;Laerm;58380;48.312;9.246;2024-02-28T13:40:40;51.97;39.69;64.33;;
1754;Laerm;58380;48.312;9.246;2024-02-28T13:43:41;44.62;34.01;55.27;;
1754;Laerm;58380;48.312;9.246;2024-02-28T13:46:42;48.56;39.72;61.46;;
1754;Laerm;58380;48.312;9.246;2024-02-28T13:49:42;46.34;39.18;54.14;;
1754;Laerm;58380;48.312;9.246;2024-02-28T13:52:43;46.67;35.95;55.22;;
1754;Laerm;58380;48.312;9.246;2024-02-28T13:55:47;46.02;36.53;54.62;;
1754;Laerm;58380;48.312;9.246;2024-02-28T13:58:47;50.37;39.78;66.13;;
1754;Laerm;58380;48.312;9.246;2024-02-28T14:01:48;52.50;39.21;70.26;;
1754;Laerm;58380;48.312;9.246;2024-02-28T14:04:49;47.70;36.29;63.67;;
1754;Laerm;58380;48.312;9.246;2024-02-28T14:07:49;45.56;33.51;59.36;;
1754;Laerm;58380;48.312;9.246;2024-02-28T14:10:50;49.60;38.66;61.60;;
1754;Laerm;58380;48.312;9.246;2024-02-28T14:13:50;50.20;40.51;63.61;;
1754;Laerm;58380;48.312;9.246;2024-02-28T14:16:51;45.18;33.32;53.91;;
1754;Laerm;58380;48.312;9.246;2024-02-28T14:19:51;46.39;38.70;55.75;;
1754;Laerm;58380;48.312;9.246;2024-02-28T14:22:52;47.31;34.42;59.18;;
1754;Laerm;58380;48.312;9.246;2024-02-28T14:25:54;52.67;33.09;73.19;;
1754;Laerm;58380;48.312;9.246;2024-02-28T14:28:54;46.78;42.17;53.60;;
1754;Laerm;58380;48.312;9.246;2024-02-28T14:31:55;50.58;35.98;62.76;;
1754;Laerm;58380;48.312;9.246;2024-02-28T14:34:56;47.23;37.05;64.19;;
1754;Laerm;58380;48.312;9.246;2024-02-28T14:37:56;49.03;39.97;54.65;;
1754;Laerm;58380;48.312;9.246;2024-02-28T14:40:57;47.97;39.16;55.89;;
1754;Laerm;58380;48.312;9.246;2024-02-28T14:43:58;45.09;34.53;54.90;;
1754;Laerm;58380;48.312;9.246;2024-02-28T14:46:58;46.23;34.93;62.07;;
1754;Laerm;58380;48.312;9.246;2024-02-28T14:49:58;49.85;36.16;63.47;;
1754;Laerm;58380;48.312;9.246;2024-02-28T14:52:59;46.82;35.58;61.08;;
1754;Laerm;58380;48.312;9.246;2024-02-28T14:55:59;47.82;36.17;58.63;;
1754;Laerm;58380;48.312;9.246;2024-02-28T14:59:00;43.73;32.47;55.31;;
1754;Laerm;58380;48.312;9.246;2024-02-28T15:02:01;47.80;38.66;65.36;;
1754;Laerm;58380;48.312;9.246;2024-02-28T15:05:01;47.79;40.97;58.03;;
1754;Laerm;58380;48.312;9.246;2024-02-28T15:08:06;46.00;37.75;56.45;;
1754;Laerm;58380;48.312;9.246;2024-02-28T15:11:07;45.24;36.54;56.38;;
1754;Laerm;58380;48.312;9.246;2024-02-28T15:14:08;46.30;38.48;55.40;;
1754;Laerm;58380;48.312;9.246;2024-02-28T15:17:08;45.78;37.17;56.76;;
1754;Laerm;58380;48.312;9.246;2024-02-28T15:20:09;46.47;38.62;54.08;;
1754;Laerm;58380;48.312;9.246;2024-02-28T15:23:09;43.03;33.46;55.19;;
1754;Laerm;58380;48.312;9.246;2024-02-28T15:26:10;46.73;38.38;61.01;;
1754;Laerm;58380;48.312;9.246;2024-02-28T15:29:10;46.83;36.44;60.79;;
1754;Laerm;58380;48.312;9.246;2024-02-28T15:32:11;48.93;34.20;62.80;;
1754;Laerm;58380;48.312;9.246;2024-02-28T15:35:12;46.13;38.86;56.19;;
1754;Laerm;58380;48.312;9.246;2024-02-28T15:38:12;43.69;35.92;55.70;;
1754;Laerm;58380;48.312;9.246;2024-02-28T15:41:13;45.78;36.53;56.97;;
1754;Laerm;58380;48.312;9.246;2024-02-28T15:44:14;45.81;35.51;55.60;;
1754;Laerm;58380;48.312;9.246;2024-02-28T15:47:14;45.24;38.59;53.14;;
1754;Laerm;58380;48.312;9.246;2024-02-28T15:50:14;45.49;36.47;52.60;;
1754;Laerm;58380;48.312;9.246;2024-02-28T15:53:15;53.90;38.80;77.60;;
1754;Laerm;58380;48.312;9.246;2024-02-28T15:56:16;44.64;35.73;61.48;;
1754;Laerm;58380;48.312;9.246;2024-02-28T15:59:16;45.59;36.55;55.14;;
1754;Laerm;58380;48.312;9.246;2024-02-28T16:02:17;45.64;38.95;62.20;;
1754;Laerm;58380;48.312;9.246;2024-02-28T16:05:17;45.64;37.55;55.00;;
1754;Laerm;58380;48.312;9.246;2024-02-28T16:08:17;46.45;34.21;57.75;;
1754;Laerm;58380;48.312;9.246;2024-02-28T16:11:20;46.13;37.69;55.19;;
1754;Laerm;58380;48.312;9.246;2024-02-28T16:14:20;45.61;34.57;65.52;;
1754;Laerm;58380;48.312;9.246;2024-02-28T16:17:21;45.49;37.21;57.26;;
1754;Laerm;58380;48.312;9.246;2024-02-28T16:20:21;44.51;37.98;54.25;;
1754;Laerm;58380;48.312;9.246;2024-02-28T16:23:24;45.32;37.26;53.21;;
1754;Laerm;58380;48.312;9.246;2024-02-28T16:26:24;47.13;37.11;58.01;;
1754;Laerm;58380;48.312;9.246;2024-02-28T16:29:25;47.57;36.36;63.29;;
1754;Laerm;58380;48.312;9.246;2024-02-28T16:32:25;51.09;36.90;62.96;;
1754;Laerm;58380;48.312;9.246;2024-02-28T16:35:26;43.53;34.83;50.37;;
1754;Laerm;58380;48.312;9.246;2024-02-28T16:38:26;48.73;39.24;57.50;;
1754;Laerm;58380;48.312;9.246;2024-02-28T16:41:27;44.45;36.56;56.42;;
1754;Laerm;58380;48.312;9.246;2024-02-28T16:44:27;45.47;36.54;54.69;;
1754;Laerm;58380;48.312;9.246;2024-02-28T16:47:27;46.62;38.61;59.38;;
1754;Laerm;58380;48.312;9.246;2024-02-28T16:50:28;48.68;39.77;61.12;;
1754;Laerm;58380;48.312;9.246;2024-02-28T16:53:29;46.28;38.79;60.79;;
1754;Laerm;58380;48.312;9.246;2024-02-28T16:56:31;44.73;38.01;52.29;;
1754;Laerm;58380;48.312;9.246;2024-02-28T16:59:31;42.96;34.96;54.30;;
1754;Laerm;58380;48.312;9.246;2024-02-28T17:02:32;46.33;37.13;58.07;;
1754;Laerm;58380;48.312;9.246;2024-02-28T17:05:32;44.73;37.68;53.43;;
1754;Laerm;58380;48.312;9.246;2024-02-28T17:08:33;45.26;37.48;55.07;;
1754;Laerm;58380;48.312;9.246;2024-02-28T17:11:35;45.63;39.65;58.22;;
1754;Laerm;58380;48.312;9.246;2024-02-28T17:14:35;44.36;35.08;51.14;;
1754;Laerm;58380;48.312;9.246;2024-02-28T17:17:37;44.11;35.36;51.55;;
1754;Laerm;58380;48.312;9.246;2024-02-28T17:20:38;45.61;35.09;59.35;;
1754;Laerm;58380;48.312;9.246;2024-02-28T17:23:38;45.76;34.46;61.41;;
1754;Laerm;58380;48.312;9.246;2024-02-28T17:26:39;45.34;37.12;66.25;;
1754;Laerm;58380;48.312;9.246;2024-02-28T17:29:40;44.29;35.13;53.23;;
1754;Laerm;58380;48.312;9.246;2024-02-28T17:32:40;45.57;34.72;51.01;;
1754;Laerm;58380;48.312;9.246;2024-02-28T17:35:40;46.05;34.19;53.07;;
1754;Laerm;58380;48.312;9.246;2024-02-28T17:38:41;44.79;36.03;55.15;;
1754;Laerm;58380;48.312;9.246;2024-02-28T17:41:43;46.57;32.87;53.96;;
1754;Laerm;58380;48.312;9.246;2024-02-28T17:44:45;44.33;38.38;52.05;;
1754;Laerm;58380;48.312;9.246;2024-02-28T17:47:46;42.60;33.15;51.35;;
1754;Laerm;58380;48.312;9.246;2024-02-28T17:50:46;42.88;33.54;65.81;;
1754;Laerm;58380;48.312;9.246;2024-02-28T17:53:47;45.63;34.25;64.64;;
1754;Laerm;58380;48.312;9.246;2024-02-28T17:56:47;43.29;34.03;48.43;;
1754;Laerm;58380;48.312;9.246;2024-02-28T17:59:49;42.19;32.84;49.51;;
1754;Laerm;58380;48.312;9.246;2024-02-28T18:02:50;45.68;35.84;56.89;;
1754;Laerm;58380;48.312;9.246;2024-02-28T18:05:50;42.84;34.60;49.71;;
1754;Laerm;58380;48.312;9.246;2024-02-28T18:08:50;41.43;31.99;49.21;;
1754;Laerm;58380;48.312;9.246;2024-02-28T18:11:51;42.48;35.22;49.72;;
1754;Laerm;58380;48.312;9.246;2024-02-28T18:14:51;42.89;34.78;55.00;;
1754;Laerm;58380;48.312;9.246;2024-02-28T18:17:52;49.86;35.50;74.03;;
1754;Laerm;58380;48.312;9.246;2024-02-28T18:20:54;44.52;37.14;50.97;;
1754;Laerm;58380;48.312;9.246;2024-02-28T18:23:55;42.30;30.49;49.97;;
1754;Laerm;58380;48.312;9.246;2024-02-28T18:26:55;41.78;34.03;49.79;;
1754;Laerm;58380;48.312;9.246;2024-02-28T18:29:55;43.46;34.21;50.32;;
1754;Laerm;58380;48.312;9.246;2024-02-28T18:32:56;42.53;32.14;54.75;;
1754;Laerm;58380;48.312;9.246;2024-02-28T18:35:56;42.56;33.84;49.87;;
1754;Laerm;58380;48.312;9.246;2024-02-28T18:38:59;42.60;32.93;58.01;;
1754;Laerm;58380;48.312;9.246;2024-02-28T18:42:03;41.73;33.85;48.98;;
1754;Laerm;58380;48.312;9.246;2024-02-28T18:45:04;42.01;33.29;49.26;;
1754;Laerm;58380;48.312;9.246;2024-02-28T18:48:06;45.46;36.07;57.74;;
1754;Laerm;58380;48.312;9.246;2024-02-28T18:51:07;41.62;32.78;48.70;;
1754;Laerm;58380;48.312;9.246;2024-02-28T18:54:07;43.39;31.82;49.67;;
1754;Laerm;58380;48.312;9.246;2024-02-28T18:57:08;41.08;33.79;50.30;;
1754;Laerm;58380;48.312;9.246;2024-02-28T19:00:09;43.55;32.97;53.11;;
1754;Laerm;58380;48.312;9.246;2024-02-28T19:03:11;42.65;31.46;53.96;;
1754;Laerm;58380;48.312;9.246;2024-02-28T19:06:11;40.68;31.68;51.54;;
1754;Laerm;58380;48.312;9.246;2024-02-28T19:09:12;40.08;31.74;51.57;;
1754;Laerm;58380;48.312;9.246;2024-02-28T19:12:12;41.58;32.71;51.56;;
1754;Laerm;58380;48.312;9.246;2024-02-28T19:15:14;40.63;33.37;48.31;;
1754;Laerm;58380;48.312;9.246;2024-02-28T19:18:14;40.73;34.38;49.58;;
1754;Laerm;58380;48.312;9.246;2024-02-28T19:21:15;40.77;31.67;49.91;;
1754;Laerm;58380;48.312;9.246;2024-02-28T19:24:15;44.02;37.20;50.76;;
1754;Laerm;58380;48.312;9.246;2024-02-28T19:27:17;41.64;31.35;52.74;;
1754;Laerm;58380;48.312;9.246;2024-02-28T19:30:17;42.57;31.78;51.03;;
1754;Laerm;58380;48.312;9.246;2024-02-28T19:33:17;40.56;32.58;55.95;;
1754;Laerm;58380;48.312;9.246;2024-02-28T19:36:20;41.87;31.27;55.43;;
1754;Laerm;58380;48.312;9.246;2024-02-28T19:39:21;41.00;31.12;53.28;;
1754;Laerm;58380;48.312;9.246;2024-02-28T19:42:21;41.15;31.22;51.56;;
1754;Laerm;58380;48.312;9.246;2024-02-28T19:45:21;42.03;31.67;52.37;;
1754;Laerm;58380;48.312;9.246;2024-02-28T19:48:22;39.78;30.93;47.10;;
1754;Laerm;58380;48.312;9.246;2024-02-28T19:51:22;37.60;31.07;47.51;;
1754;Laerm;58380;48.312;9.246;2024-02-28T19:54:23;44.07;34.80;58.01;;
1754;Laerm;58380;48.312;9.246;2024-02-28T19:57:23;40.80;31.04;52.20;;
1754;Laerm;58380;48.312;9.246;2024-02-28T20:00:24;41.66;32.57;50.91;;
1754;Laerm;58380;48.312;9.246;2024-02-28T20:03:24;41.25;32.14;49.37;;
1754;Laerm;58380;48.312;9.246;2024-02-28T20:06:25;42.22;31.58;53.34;;
1754;Laerm;58380;48.312;9.246;2024-02-28T20:09:25;44.01;31.43;58.21;;
1754;Laerm;58380;48.312;9.246;2024-02-28T20:12:25;32.76;30.22;53.87;;
1754;Laerm;58380;48.312;9.246;2024-02-28T20:15:26;38.36;30.81;47.98;;
1754;Laerm;58380;48.312;9.246;2024-02-28T20:18:27;41.34;32.91;53.11;;
1754;Laerm;58380;48.312;9.246;2024-02-28T20:21:27;39.98;30.58;51.11;;
1754;Laerm;58380;48.312;9.246;2024-02-28T20:24:28;41.02;30.98;51.67;;
1754;Laerm;58380;48.312;9.246;2024-02-28T20:27:28;41.53;33.33;52.45;;
1754;Laerm;58380;48.312;9.246;2024-02-28T20:30:29;38.62;30.46;45.49;;
1754;Laerm;58380;48.312;9.246;2024-02-28T20:33:29;41.14;30.86;53.84;;
1754;Laerm;58380;48.312;9.246;2024-02-28T20:36:30;41.93;31.00;51.70;;
1754;Laerm;58380;48.312;9.246;2024-02-28T20:39:30;40.43;30.62;51.92;;
1754;Laerm;58380;48.312;9.246;2024-02-28T20:42:31;40.07;33.07;48.14;;
1754;Laerm;58380;48.312;9.246;2024-02-28T20:45:32;39.39;31.19;47.59;;
1754;Laerm;58380;48.312;9.246;2024-02-28T20:48:34;39.40;31.71;50.53;;
1754;Laerm;58380;48.312;9.246;2024-02-28T20:51:35;38.05;31.25;47.88;;
1754;Laerm;58380;48.312;9.246;2024-02-28T20:54:35;40.40;31.89;53.22;;
1754;Laerm;58380;48.312;9.246;2024-02-28T20:57:36;41.18;32.00;50.03;;
1754;Laerm;58380;48.312;9.246;2024-02-28T21:00:39;38.40;30.50;46.80;;
1754;Laerm;58380;48.312;9.246;2024-02-28T21:03:39;37.18;30.62;45.50;;
1754;Laerm;58380;48.312;9.246;2024-02-28T21:06:40;39.35;29.96;51.13;;
1754;Laerm;58380;48.312;9.246;2024-02-28T21:09:41;37.48;31.59;45.43;;
1754;Laerm;58380;48.312;9.246;2024-02-28T21:12:42;34.87;30.73;43.65;;
1754;Laerm;58380;48.312;9.246;2024-02-28T21:15:43;35.62;30.39;44.82;;
1754;Laerm;58380;48.312;9.246;2024-02-28T21:18:43;39.01;30.50;53.59;;
1754;Laerm;58380;48.312;9.246;2024-02-28T21:21:43;40.88;31.09;48.94;;
1754;Laerm;58380;48.312;9.246;2024-02-28T21:24:44;36.29;29.93;52.43;;
1754;Laerm;58380;48.312;9.246;2024-02-28T21:27:44;38.60;30.30;51.46;;
1754;Laerm;58380;48.312;9.246;2024-02-28T21:30:45;39.09;30.04;52.31;;
1754;Laerm;58380;48.312;9.246;2024-02-28T21:33:46;37.01;29.53;46.95;;
1754;Laerm;58380;48.312;9.246;2024-02-28T21:36:46;39.35;30.37;47.39;;
1754;Laerm;58380;48.312;9.246;2024-02-28T21:39:47;37.95;30.26;51.85;;
1754;Laerm;58380;48.312;9.246;2024-02-28T21:42:47;40.98;30.78;48.05;;
1754;Laerm;58380;48.312;9.246;2024-02-28T21:45:48;38.35;29.53;48.09;;
1754;Laerm;58380;48.312;9.246;2024-02-28T21:48:48;36.23;30.15;44.59;;
1754;Laerm;58380;48.312;9.246;2024-02-28T21:51:49;35.04;29.92;55.81;;
1754;Laerm;58380;48.312;9.246;2024-02-28T21:54:51;35.31;29.51;44.04;;
1754;Laerm;58380;48.312;9.246;2024-02-28T21:57:53;35.23;29.94;44.83;;
1754;Laerm;58380;48.312;9.246;2024-02-28T22:00:54;39.07;31.99;46.53;;
1754;Laerm;58380;48.312;9.246;2024-02-28T22:03:54;45.11;30.56;59.14;;
1754;Laerm;58380;48.312;9.246;2024-02-28T22:06:55;39.96;29.31;53.28;;
1754;Laerm;58380;48.312;9.246;2024-02-28T22:09:56;32.75;29.31;49.90;;
1754;Laerm;58380;48.312;9.246;2024-02-28T22:12:57;40.00;30.04;54.34;;
1754;Laerm;58380;48.312;9.246;2024-02-28T22:15:57;38.20;31.82;50.73;;
1754;Laerm;58380;48.312;9.246;2024-02-28T22:18:58;37.57;29.72;50.21;;
1754;Laerm;58380;48.312;9.246;2024-02-28T22:22:01;34.21;30.09;43.50;;
